createdAt,value
2023-08-12T00:00:37.332Z,7.82
2023-08-12T00:03:05.450Z,7.15
2023-08-12T00:05:33.432Z,8.32
2023-08-12T00:08:00.908Z,8.52
2023-08-12T00:10:28.448Z,7.82
2023-08-12T00:12:55.703Z,7.32
2023-08-12T00:15:23.293Z,6.80
2023-08-12T00:17:50.900Z,9.00
2023-08-12T00:20:18.524Z,7.30
2023-08-12T00:22:45.871Z,9.27
2023-08-12T00:25:13.508Z,7.80
2023-08-12T00:27:41.240Z,7.05
2023-08-12T00:30:10.060Z,6.45
2023-08-12T00:32:37.323Z,6.68
2023-08-12T00:35:05.203Z,12.40
2023-08-12T00:37:34.196Z,7.00
2023-08-12T00:40:02.840Z,7.03
2023-08-12T00:42:30.189Z,6.63
2023-08-12T00:44:58.581Z,7.15
2023-08-12T00:47:26.764Z,9.13
2023-08-12T00:49:54.543Z,6.47
2023-08-12T00:52:21.847Z,9.68
2023-08-12T00:54:49.790Z,11.82
2023-08-12T00:57:17.592Z,7.38
2023-08-12T00:59:51.450Z,10.80
2023-08-12T01:02:19.048Z,6.95
2023-08-12T01:04:47.019Z,9.27
2023-08-12T01:07:15.797Z,8.43
2023-08-12T01:09:43.303Z,7.20
2023-08-12T01:12:29.351Z,7.63
2023-08-12T01:15:22.892Z,7.30
2023-08-12T01:17:53.942Z,9.18
2023-08-12T01:20:27.358Z,6.65
2023-08-12T01:23:10.290Z,6.65
2023-08-12T01:25:38.431Z,7.53
2023-08-12T01:28:07.358Z,7.80
2023-08-12T01:31:01.201Z,7.72
2023-08-12T01:33:50.678Z,9.55
2023-08-12T01:36:22.693Z,7.50
2023-08-12T01:38:54.182Z,10.90
2023-08-12T01:41:25.563Z,8.98
2023-08-12T01:43:53.943Z,8.90
2023-08-12T01:46:23.239Z,7.65
2023-08-12T01:48:51.043Z,12.98
2023-08-12T01:51:19.004Z,8.00
2023-08-12T01:53:46.444Z,7.13
2023-08-12T01:56:14.035Z,8.48
2023-08-12T01:58:41.435Z,9.32
2023-08-12T02:01:09.254Z,8.48
2023-08-12T02:03:36.708Z,11.02
2023-08-12T02:06:04.526Z,9.32
2023-08-12T02:08:32.162Z,7.57
2023-08-12T02:10:59.538Z,7.88
2023-08-12T02:13:26.737Z,5.80
2023-08-12T02:15:54.412Z,6.63
2023-08-12T02:18:23.903Z,7.38
2023-08-12T02:20:51.123Z,9.40
2023-08-12T02:23:18.483Z,8.73
2023-08-12T02:25:46.070Z,9.50
2023-08-12T02:28:13.487Z,10.55
2023-08-12T02:30:44.315Z,8.95
2023-08-12T02:33:11.592Z,10.27
2023-08-12T02:35:39.697Z,7.70
2023-08-12T02:38:07.219Z,10.15
2023-08-12T02:40:34.869Z,8.70
2023-08-12T02:43:02.472Z,7.38
2023-08-12T02:45:29.867Z,11.73
2023-08-12T02:47:57.369Z,13.18
2023-08-12T02:50:24.812Z,11.00
2023-08-12T02:52:52.124Z,13.13
2023-08-12T02:55:19.975Z,11.32
2023-08-12T02:57:47.370Z,11.38
2023-08-12T03:00:15.676Z,12.38
2023-08-12T03:02:46.389Z,12.00
2023-08-12T03:05:14.342Z,12.63
2023-08-12T03:07:41.844Z,8.82
2023-08-12T03:10:09.708Z,12.15
2023-08-12T03:12:36.871Z,13.07
2023-08-12T03:15:08.570Z,14.73
2023-08-12T03:17:36.198Z,11.60
2023-08-12T03:20:06.700Z,10.20
2023-08-12T03:22:34.039Z,16.75
2023-08-12T03:25:01.740Z,14.73
2023-08-12T03:27:29.959Z,14.15
2023-08-12T03:29:57.581Z,10.50
2023-08-12T03:32:26.678Z,12.32
2023-08-12T03:34:54.153Z,14.70
2023-08-12T03:37:21.932Z,9.93
2023-08-12T03:39:53.601Z,11.63
2023-08-12T03:42:21.781Z,11.07
2023-08-12T03:44:50.494Z,9.85
2023-08-12T03:47:23.025Z,12.80
2023-08-12T03:49:50.623Z,8.93
2023-08-12T03:52:17.891Z,10.77
2023-08-12T03:54:45.982Z,8.20
2023-08-12T03:57:13.693Z,10.23
2023-08-12T03:59:41.223Z,9.57
2023-08-12T04:02:08.760Z,7.57
2023-08-12T04:04:37.368Z,8.18
2023-08-12T04:07:05.062Z,8.57
2023-08-12T04:09:33.507Z,10.10
2023-08-12T04:12:00.752Z,9.93
2023-08-12T04:14:32.266Z,8.93
2023-08-12T04:16:59.882Z,9.38
2023-08-12T04:19:27.199Z,10.65
2023-08-12T04:21:54.390Z,7.25
2023-08-12T04:24:21.683Z,9.13
2023-08-12T04:26:49.269Z,7.82
2023-08-12T04:29:18.005Z,7.32
2023-08-12T04:31:45.341Z,8.35
2023-08-12T04:34:12.871Z,8.35
2023-08-12T04:36:43.222Z,8.20
2023-08-12T04:39:12.603Z,6.78
2023-08-12T04:41:40.144Z,8.32
2023-08-12T04:44:08.447Z,7.85
2023-08-12T04:46:37.079Z,7.85
2023-08-12T04:49:06.043Z,8.98
2023-08-12T04:51:34.989Z,8.45
2023-08-12T04:54:03.822Z,8.32
2023-08-12T04:56:32.966Z,12.23
2023-08-12T04:59:01.531Z,8.88
2023-08-12T05:01:29.193Z,7.68
2023-08-12T05:03:56.531Z,9.85
2023-08-12T05:06:24.214Z,9.15
2023-08-12T05:08:52.952Z,8.38
2023-08-12T05:11:20.317Z,7.88
2023-08-12T05:13:47.987Z,8.63
2023-08-12T05:16:15.857Z,9.52
2023-08-12T05:18:43.949Z,8.57
2023-08-12T05:21:12.591Z,7.43
2023-08-12T05:23:39.951Z,9.32
2023-08-12T05:26:07.449Z,7.70
2023-08-12T05:28:34.998Z,8.52
2023-08-12T05:31:02.198Z,6.78
2023-08-12T05:33:29.573Z,8.43
2023-08-12T05:35:56.926Z,8.27
2023-08-12T05:38:25.110Z,7.40
2023-08-12T05:40:52.389Z,7.47
2023-08-12T05:43:19.977Z,8.82
2023-08-12T05:45:47.348Z,7.53
2023-08-12T05:48:14.794Z,7.68
2023-08-12T05:50:42.232Z,7.15
2023-08-12T05:53:09.437Z,6.97
2023-08-12T05:55:37.070Z,7.78
2023-08-12T05:58:05.843Z,10.20
2023-08-12T06:00:33.548Z,6.63
2023-08-12T06:03:01.253Z,9.05
2023-08-12T06:05:28.841Z,7.60
2023-08-12T06:07:56.533Z,8.45
2023-08-12T06:10:23.946Z,7.88
2023-08-12T06:12:51.138Z,9.57
2023-08-12T06:15:18.381Z,7.90
2023-08-12T06:17:45.599Z,5.80
2023-08-12T06:20:14.058Z,7.80
2023-08-12T06:22:41.818Z,8.18
2023-08-12T06:25:09.677Z,6.70
2023-08-12T06:27:37.481Z,7.22
2023-08-12T06:30:07.139Z,7.75
2023-08-12T06:32:36.678Z,8.88
2023-08-12T06:35:04.782Z,7.72
2023-08-12T06:37:32.685Z,8.35
2023-08-12T06:40:00.448Z,7.40
2023-08-12T06:42:27.896Z,7.22
2023-08-12T06:45:00.116Z,10.80
2023-08-12T06:47:28.783Z,8.88
2023-08-12T06:49:56.768Z,7.97
2023-08-12T06:52:24.145Z,7.47
2023-08-12T06:54:52.135Z,7.78
2023-08-12T06:57:19.553Z,10.38
2023-08-12T06:59:53.159Z,7.95
2023-08-12T07:02:21.166Z,7.53
2023-08-12T07:04:49.052Z,7.75
2023-08-12T07:07:16.737Z,6.32
2023-08-12T07:09:43.961Z,7.18
2023-08-12T07:12:11.440Z,8.73
2023-08-12T07:14:39.075Z,8.52
2023-08-12T07:17:06.385Z,7.00
2023-08-12T07:19:33.618Z,9.77
2023-08-12T07:22:01.088Z,5.85
2023-08-12T07:24:28.479Z,6.75
2023-08-12T07:26:56.619Z,4.97
2023-08-12T07:29:24.050Z,5.32
2023-08-12T07:31:53.588Z,9.77
2023-08-12T07:34:20.809Z,6.55
2023-08-12T07:36:48.279Z,7.38
2023-08-12T07:39:16.027Z,8.57
2023-08-12T07:41:43.576Z,7.85
2023-08-12T07:44:11.080Z,6.75
2023-08-12T07:46:38.533Z,7.47
2023-08-12T07:49:06.134Z,8.93
2023-08-12T07:51:33.486Z,7.85
2023-08-12T07:54:00.735Z,5.45
2023-08-12T07:56:28.329Z,6.90
2023-08-12T07:58:55.850Z,5.10
2023-08-12T08:01:23.463Z,6.00
2023-08-12T08:03:50.997Z,8.65
2023-08-12T08:06:19.004Z,7.60
2023-08-12T08:08:46.478Z,4.93
2023-08-12T08:11:13.690Z,6.60
2023-08-12T08:13:41.007Z,7.93
2023-08-12T08:16:08.371Z,7.85
2023-08-12T08:18:35.747Z,9.52
2023-08-12T08:21:05.894Z,4.57
2023-08-12T08:23:33.802Z,5.72
2023-08-12T08:26:02.180Z,5.90
2023-08-12T08:28:29.513Z,6.10
2023-08-12T08:30:56.913Z,5.13
2023-08-12T08:33:24.129Z,5.53
2023-08-12T08:35:51.308Z,5.57
2023-08-12T08:38:21.828Z,6.68
2023-08-12T08:40:51.898Z,7.18
2023-08-12T08:43:23.968Z,7.70
2023-08-12T08:45:55.365Z,6.28
2023-08-12T08:48:23.347Z,6.57
2023-08-12T08:50:52.988Z,6.63
2023-08-12T08:53:21.470Z,5.93
2023-08-12T08:55:49.728Z,6.70
2023-08-12T08:58:22.288Z,5.75
2023-08-12T09:00:50.936Z,5.97
2023-08-12T09:03:18.767Z,4.95
2023-08-12T09:05:46.968Z,5.18
2023-08-12T09:08:15.787Z,5.00
2023-08-12T09:10:43.288Z,5.35
2023-08-12T09:13:10.565Z,8.07
2023-08-12T09:15:37.931Z,6.97
2023-08-12T09:18:07.611Z,5.88
2023-08-12T09:20:35.790Z,7.85
2023-08-12T09:23:03.936Z,6.30
2023-08-12T09:25:32.241Z,6.38
2023-08-12T09:28:00.914Z,5.50
2023-08-12T09:30:34.836Z,5.03
2023-08-12T09:33:08.268Z,4.68
2023-08-12T09:35:42.326Z,4.78
2023-08-12T09:38:14.840Z,8.23
2023-08-12T09:40:49.038Z,4.60
2023-08-12T09:43:17.758Z,5.40
2023-08-12T09:45:46.979Z,5.63
2023-08-12T09:48:15.776Z,5.80
2023-08-12T09:50:45.223Z,5.57
2023-08-12T09:53:13.206Z,3.97
2023-08-12T09:55:44.697Z,5.55
2023-08-12T09:58:15.087Z,7.18
2023-08-12T10:00:43.222Z,6.45
2023-08-12T10:03:15.452Z,8.45
2023-08-12T10:05:44.812Z,5.57
2023-08-12T10:08:15.175Z,6.25
2023-08-12T10:10:44.943Z,6.63
2023-08-12T10:13:14.004Z,6.00
2023-08-12T10:15:42.071Z,4.85
2023-08-12T10:18:12.257Z,4.38
2023-08-12T10:20:41.640Z,3.60
2023-08-12T10:23:17.869Z,4.88
2023-08-12T10:25:46.815Z,4.97
2023-08-12T10:28:14.560Z,4.40
2023-08-12T10:30:43.192Z,5.60
2023-08-12T10:33:11.988Z,5.78
2023-08-12T10:35:50.750Z,6.13
2023-08-12T10:38:23.574Z,7.18
2023-08-12T10:40:52.089Z,6.30
2023-08-12T10:43:19.842Z,6.60
2023-08-12T10:45:54.360Z,4.50
2023-08-12T10:48:29.022Z,4.45
2023-08-12T10:51:00.791Z,7.47
2023-08-12T10:53:34.364Z,6.55
2023-08-12T10:56:06.394Z,4.30
2023-08-12T10:58:45.253Z,5.95
2023-08-12T11:01:19.129Z,7.63
2023-08-12T11:03:49.745Z,5.10
2023-08-12T11:06:18.047Z,4.95
2023-08-12T11:08:54.217Z,5.20
2023-08-12T11:11:27.728Z,5.90
2023-08-12T11:13:58.671Z,5.85
2023-08-12T11:16:44.508Z,5.82
2023-08-12T11:19:14.901Z,4.22
2023-08-12T11:21:44.474Z,5.35
2023-08-12T11:24:12.667Z,6.85
2023-08-12T11:26:41.957Z,4.18
2023-08-12T11:29:13.605Z,5.03
2023-08-12T11:31:43.958Z,3.60
2023-08-12T11:34:12.774Z,6.47
2023-08-12T11:36:40.585Z,4.55
2023-08-12T11:39:09.145Z,6.20
2023-08-12T11:41:36.547Z,6.03
2023-08-12T11:44:05.791Z,6.82
2023-08-12T11:46:36.448Z,5.03
2023-08-12T11:49:04.291Z,6.00
2023-08-12T11:51:31.974Z,7.95
2023-08-12T11:53:59.552Z,7.22
2023-08-12T11:56:27.349Z,7.03
2023-08-12T11:58:55.349Z,7.32
2023-08-12T12:01:24.775Z,5.13
2023-08-12T12:03:57.332Z,8.68
2023-08-12T12:06:42.533Z,7.15
2023-08-12T12:09:11.237Z,5.75
2023-08-12T12:11:39.740Z,7.25
2023-08-12T12:14:11.050Z,8.00
2023-08-12T12:16:47.722Z,7.60
2023-08-12T12:19:25.033Z,6.97
2023-08-12T12:21:55.016Z,6.32
2023-08-12T12:24:22.724Z,5.55
2023-08-12T12:26:51.403Z,7.80
2023-08-12T12:29:18.865Z,6.75
2023-08-12T12:31:46.177Z,7.70
2023-08-12T12:34:15.262Z,6.75
2023-08-12T12:36:43.170Z,7.93
2023-08-12T12:39:11.013Z,4.88
2023-08-12T12:41:38.706Z,11.57
2023-08-12T12:44:06.675Z,13.18
2023-08-12T12:46:34.324Z,7.70
2023-08-12T12:49:01.917Z,8.60
2023-08-12T12:51:29.602Z,7.43
2023-08-12T12:53:57.058Z,7.70
2023-08-12T12:56:24.895Z,13.45
2023-08-12T12:58:52.357Z,7.13
2023-08-12T13:01:19.616Z,9.40
2023-08-12T13:03:47.134Z,6.88
2023-08-12T13:06:14.968Z,8.05
2023-08-12T13:08:42.463Z,7.78
2023-08-12T13:11:09.961Z,7.55
2023-08-12T13:13:37.251Z,8.80
2023-08-12T13:16:05.135Z,8.18
2023-08-12T13:18:32.527Z,7.72
2023-08-12T13:21:00.084Z,6.18
2023-08-12T13:23:28.071Z,6.95
2023-08-12T13:25:55.766Z,7.20
2023-08-12T13:28:23.077Z,7.20
2023-08-12T13:30:50.886Z,6.63
2023-08-12T13:33:18.421Z,7.03
2023-08-12T13:35:46.022Z,7.18
2023-08-12T13:38:14.094Z,7.00
2023-08-12T13:40:48.120Z,12.68
2023-08-12T13:43:15.826Z,7.97
2023-08-12T13:45:43.394Z,11.50
2023-08-12T13:48:11.003Z,8.52
2023-08-12T13:50:38.354Z,10.27
2023-08-12T13:53:05.622Z,10.30
2023-08-12T13:55:33.045Z,8.90
2023-08-12T13:58:00.368Z,7.22
2023-08-12T14:00:27.699Z,6.72
2023-08-12T14:02:55.060Z,6.93
2023-08-12T14:05:22.540Z,6.38
2023-08-12T14:07:50.116Z,8.23
2023-08-12T14:10:17.588Z,7.22
2023-08-12T14:12:46.018Z,5.85
2023-08-12T14:15:13.456Z,8.80
2023-08-12T14:17:40.813Z,7.53
2023-08-12T14:20:09.289Z,6.75
2023-08-12T14:22:37.076Z,5.38
2023-08-12T14:25:06.303Z,5.22
2023-08-12T14:27:34.222Z,5.85
2023-08-12T14:30:01.885Z,6.72
2023-08-12T14:32:29.359Z,6.07
2023-08-12T14:34:56.603Z,5.93
2023-08-12T14:37:23.968Z,5.95
2023-08-12T14:39:51.886Z,5.18
2023-08-12T14:42:19.237Z,6.38
2023-08-12T14:44:47.116Z,3.85
2023-08-12T14:47:15.182Z,4.47
2023-08-12T14:49:43.108Z,4.22
2023-08-12T14:52:21.806Z,6.75
2023-08-12T14:54:49.800Z,4.65
2023-08-12T14:57:17.212Z,4.50
2023-08-12T14:59:44.712Z,5.78
2023-08-12T15:02:11.893Z,6.22
2023-08-12T15:04:40.581Z,5.05
2023-08-12T15:07:07.919Z,3.90
2023-08-12T15:09:35.195Z,3.85
2023-08-12T15:12:02.526Z,3.70
2023-08-12T15:14:31.737Z,4.38
2023-08-12T15:17:01.064Z,4.20
2023-08-12T15:19:28.514Z,5.15
2023-08-12T15:21:56.226Z,5.72
2023-08-12T15:24:23.771Z,4.35
2023-08-12T15:26:51.486Z,4.10
2023-08-12T15:29:18.872Z,4.78
2023-08-12T15:31:46.737Z,5.30
2023-08-12T15:34:14.276Z,5.28
2023-08-12T15:36:43.247Z,5.28
2023-08-12T15:39:13.548Z,4.15
2023-08-12T15:41:45.311Z,4.90
2023-08-12T15:44:14.728Z,4.70
2023-08-12T15:46:43.170Z,5.38
2023-08-12T15:49:12.366Z,6.38
2023-08-12T15:51:41.705Z,5.47
2023-08-12T15:54:09.550Z,5.68
2023-08-12T15:56:38.476Z,6.90
2023-08-12T15:59:07.828Z,6.15
2023-08-12T16:01:36.391Z,5.38
2023-08-12T16:04:04.567Z,7.65
2023-08-12T16:06:32.506Z,5.30
2023-08-12T16:11:30.245Z,5.65
2023-08-12T16:13:57.456Z,6.07
2023-08-12T16:16:24.755Z,7.22
2023-08-12T16:18:51.996Z,5.85
2023-08-12T16:21:19.181Z,5.95
2023-08-12T16:23:46.436Z,5.28
2023-08-12T16:26:14.664Z,9.60
2023-08-12T16:28:42.052Z,6.30
2023-08-12T16:31:09.561Z,13.65
2023-08-12T16:33:36.877Z,10.00
2023-08-12T16:36:05.269Z,7.78
2023-08-12T16:38:33.628Z,9.38
2023-08-12T16:41:01.214Z,11.18
2023-08-12T16:43:28.992Z,10.57
2023-08-12T16:45:56.619Z,14.77
2023-08-12T16:48:24.258Z,11.02
2023-08-12T16:50:51.781Z,9.65
2023-08-12T16:53:19.023Z,8.90
2023-08-12T16:55:46.772Z,10.75
2023-08-12T16:58:14.328Z,8.75
2023-08-12T17:00:41.979Z,13.45
2023-08-12T17:03:09.504Z,12.35
2023-08-12T17:05:37.316Z,9.35
2023-08-12T17:08:05.295Z,11.23
2023-08-12T17:10:33.908Z,12.23
2023-08-12T17:13:01.240Z,10.52
2023-08-12T17:15:29.112Z,9.15
2023-08-12T17:17:56.409Z,9.20
2023-08-12T17:20:24.713Z,11.30
2023-08-12T17:22:52.208Z,8.63
2023-08-12T17:25:19.663Z,10.38
2023-08-12T17:27:47.237Z,10.07
2023-08-12T17:30:17.211Z,8.70
2023-08-12T17:32:44.780Z,7.63
2023-08-12T17:35:12.383Z,6.75
2023-08-12T17:37:40.973Z,8.15
2023-08-12T17:40:11.806Z,7.00
2023-08-12T17:42:39.439Z,8.10
2023-08-12T17:45:08.169Z,9.55
2023-08-12T17:48:05.791Z,7.32
2023-08-12T17:50:33.688Z,6.97
2023-08-12T17:53:01.079Z,7.88
2023-08-12T17:55:29.013Z,6.35
2023-08-12T17:57:57.443Z,5.50
2023-08-12T18:00:25.102Z,5.68
2023-08-12T18:02:52.364Z,4.93
2023-08-12T18:05:19.995Z,6.20
2023-08-12T18:07:47.571Z,5.75
2023-08-12T18:10:15.113Z,6.97
2023-08-12T18:12:42.300Z,6.15
2023-08-12T18:15:10.458Z,6.65
2023-08-12T18:17:38.592Z,5.57
2023-08-12T18:20:07.363Z,5.78
2023-08-12T18:22:34.667Z,5.53
2023-08-12T18:25:02.209Z,7.00
2023-08-12T18:27:30.561Z,6.90
2023-08-12T18:29:58.220Z,8.50
2023-08-12T18:32:27.744Z,6.22
2023-08-12T18:34:57.650Z,7.07
2023-08-12T18:37:25.206Z,6.57
2023-08-12T18:39:52.942Z,9.60
2023-08-12T18:42:20.513Z,6.45
2023-08-12T18:44:48.471Z,7.32
2023-08-12T18:47:17.611Z,6.40
2023-08-12T18:49:46.075Z,6.07
2023-08-12T18:52:14.763Z,7.07
2023-08-12T18:54:42.479Z,6.00
2023-08-12T18:57:09.803Z,7.50
2023-08-12T18:59:38.072Z,8.60
2023-08-12T19:02:05.585Z,9.75
2023-08-12T19:04:33.352Z,7.68
2023-08-12T19:07:01.031Z,7.47
2023-08-12T19:09:28.521Z,9.48
2023-08-12T19:11:55.924Z,10.43
2023-08-12T19:14:23.260Z,8.10
2023-08-12T19:16:51.146Z,8.63
2023-08-12T19:19:18.592Z,9.30
2023-08-12T19:21:45.911Z,8.30
2023-08-12T19:24:13.752Z,8.75
2023-08-12T19:26:41.331Z,7.28
2023-08-12T19:29:08.762Z,8.63
2023-08-12T19:31:36.663Z,9.10
2023-08-12T19:34:04.707Z,8.73
2023-08-12T19:36:32.403Z,8.82
2023-08-12T19:39:00.110Z,9.80
2023-08-12T19:41:30.098Z,8.50
2023-08-12T19:43:59.840Z,7.75
2023-08-12T19:46:27.736Z,9.75
2023-08-12T19:48:55.661Z,7.32
2023-08-12T19:51:23.143Z,8.73
2023-08-12T19:53:50.473Z,9.00
2023-08-12T19:56:18.449Z,10.63
2023-08-12T19:58:46.298Z,8.15
2023-08-12T20:01:13.950Z,9.15
2023-08-12T20:03:41.550Z,9.43
2023-08-12T20:06:12.470Z,11.93
2023-08-12T20:08:40.081Z,8.75
2023-08-12T20:11:07.364Z,7.85
2023-08-12T20:13:34.676Z,8.55
2023-08-12T20:16:01.922Z,6.88
2023-08-12T20:18:29.483Z,7.93
2023-08-12T20:20:56.797Z,7.05
2023-08-12T20:23:24.200Z,6.85
2023-08-12T20:25:51.822Z,6.75
2023-08-12T20:28:19.217Z,8.15
2023-08-12T20:30:47.659Z,8.43
2023-08-12T20:33:15.107Z,7.88
2023-08-12T20:35:42.376Z,8.38
2023-08-12T20:38:09.899Z,7.68
2023-08-12T20:40:37.704Z,8.65
2023-08-12T20:43:05.708Z,7.63
2023-08-12T20:45:33.145Z,8.30
2023-08-12T20:48:00.512Z,8.55
2023-08-12T20:50:27.897Z,8.65
2023-08-12T20:52:55.166Z,9.60
2023-08-12T20:55:22.970Z,8.75
2023-08-12T20:57:50.593Z,8.73
2023-08-12T21:00:18.333Z,7.22
2023-08-12T21:02:46.518Z,14.57
2023-08-12T21:05:15.142Z,11.15
2023-08-12T21:07:42.872Z,10.88
2023-08-12T21:10:12.145Z,12.40
2023-08-12T21:12:39.765Z,11.10
2023-08-12T21:15:07.872Z,11.65
2023-08-12T21:17:35.643Z,10.07
2023-08-12T21:20:03.521Z,14.00
2023-08-12T21:22:30.785Z,12.77
2023-08-12T21:24:57.959Z,11.63
2023-08-12T21:27:26.895Z,12.00
2023-08-12T21:29:54.600Z,10.25
2023-08-12T21:32:22.453Z,11.52
2023-08-12T21:34:50.094Z,13.27
2023-08-12T21:37:17.727Z,13.65
2023-08-12T21:39:45.877Z,14.38
2023-08-12T21:42:13.722Z,12.65
2023-08-12T21:44:41.829Z,12.63
2023-08-12T21:47:10.331Z,12.07
2023-08-12T21:49:37.518Z,14.98
2023-08-12T21:52:04.917Z,13.30
2023-08-12T21:54:32.571Z,12.40
2023-08-12T21:57:00.265Z,13.18
2023-08-12T21:59:27.815Z,12.18
2023-08-12T22:01:55.507Z,12.60
2023-08-12T22:04:22.903Z,13.10
2023-08-12T22:06:50.402Z,13.10
2023-08-12T22:09:17.647Z,13.57
2023-08-12T22:11:45.138Z,13.27
2023-08-12T22:14:12.655Z,15.30
2023-08-12T22:16:40.436Z,16.73
2023-08-12T22:19:08.153Z,16.65
2023-08-12T22:21:35.323Z,15.35
2023-08-12T22:24:02.630Z,14.30
2023-08-12T22:26:30.165Z,14.05
2023-08-12T22:28:58.070Z,13.27
2023-08-12T22:31:25.814Z,16.05
2023-08-12T22:33:53.144Z,15.35
2023-08-12T22:36:20.997Z,12.60
2023-08-12T22:38:48.796Z,12.75
2023-08-12T22:41:16.161Z,14.05
2023-08-12T22:43:43.910Z,13.60
2023-08-12T22:46:11.652Z,12.30
2023-08-12T22:48:38.936Z,12.48
2023-08-12T22:51:06.148Z,13.70
2023-08-12T22:53:33.410Z,14.93
2023-08-12T22:56:00.991Z,14.68
2023-08-12T22:58:28.238Z,15.85
2023-08-12T23:00:56.159Z,17.83
2023-08-12T23:03:23.893Z,17.38
2023-08-12T23:05:51.573Z,15.07
2023-08-12T23:08:18.942Z,17.15
2023-08-12T23:10:47.118Z,17.63
2023-08-12T23:13:14.516Z,16.30
2023-08-12T23:15:44.568Z,19.75
2023-08-12T23:18:12.561Z,20.70
2023-08-12T23:20:40.062Z,17.85
2023-08-12T23:23:07.694Z,16.95
2023-08-12T23:25:35.353Z,17.15
2023-08-12T23:28:02.604Z,17.75
2023-08-12T23:30:30.481Z,17.85
2023-08-12T23:32:57.791Z,16.15
2023-08-12T23:35:25.057Z,13.70
2023-08-12T23:37:52.609Z,14.07
2023-08-12T23:40:20.683Z,18.38
2023-08-12T23:42:48.076Z,15.10
2023-08-12T23:45:15.665Z,17.83
2023-08-12T23:47:43.084Z,14.93
2023-08-12T23:50:12.618Z,18.15
2023-08-12T23:52:40.075Z,17.02
2023-08-12T23:55:08.315Z,16.33
2023-08-12T23:57:36.669Z,13.38
